Weather at Wise A.R.Hospital Heliport

Public forecast

Using degrees Fahrenheit for public forecast. Weather courtesy of forecast.io.

Closest aviation weather report (METAR) to Wise A.R.Hospital Heliport

Closest report is Lonesome Pine Airport, 2.8 nm (5.2 km) ENE. Retrieved 2021/06/13 16:35 UTC (23 minutes ago):

KLNP 131635Z AUTO 00000KT 10SM SCT035 25/16 A3006 RMK AO2

Closest aviation forecast (TAF) to Wise A.R.Hospital Heliport

Closest forecast is Tri-Cities Regional TN/VA Airport, 31.0 nm (57.4 km) SSE. Retrieved 2021/06/13 12:36 UTC (4 hours ago):

TAF KTRI 131135Z 1312/1412 VRB03KT P6SM SKC TEMPO 1312/1314 1/2SM FG BKN001 FM131400 00000KT P6SM FEW250 PROB30 1402/1405 6SM TSRA BR BKN050CB